sensor_id;sensor_type;location;lat;lon;timestamp;P1;durP1;ratioP1;P2;durP2;ratioP2
65189;SDS011;51777;53.570;9.984;2022-10-15T00:01:35;14.73;;;7.97;;
65189;SDS011;51777;53.570;9.984;2022-10-15T00:04:01;16.42;;;7.90;;
65189;SDS011;51777;53.570;9.984;2022-10-15T00:06:27;13.27;;;9.13;;
65189;SDS011;51777;53.570;9.984;2022-10-15T00:08:52;13.23;;;8.40;;
65189;SDS011;51777;53.570;9.984;2022-10-15T00:11:18;15.40;;;9.23;;
65189;SDS011;51777;53.570;9.984;2022-10-15T00:13:46;13.05;;;8.80;;
65189;SDS011;51777;53.570;9.984;2022-10-15T00:16:13;17.55;;;10.05;;
65189;SDS011;51777;53.570;9.984;2022-10-15T00:18:41;19.10;;;11.48;;
65189;SDS011;51777;53.570;9.984;2022-10-15T00:21:07;17.35;;;11.05;;
65189;SDS011;51777;53.570;9.984;2022-10-15T00:23:35;23.00;;;11.13;;
65189;SDS011;51777;53.570;9.984;2022-10-15T00:26:01;17.80;;;11.02;;
65189;SDS011;51777;53.570;9.984;2022-10-15T00:28:29;22.98;;;11.38;;
65189;SDS011;51777;53.570;9.984;2022-10-15T00:30:58;18.92;;;11.30;;
65189;SDS011;51777;53.570;9.984;2022-10-15T00:33:24;23.70;;;12.25;;
65189;SDS011;51777;53.570;9.984;2022-10-15T00:35:57;23.65;;;13.07;;
65189;SDS011;51777;53.570;9.984;2022-10-15T00:38:23;22.20;;;13.25;;
65189;SDS011;51777;53.570;9.984;2022-10-15T00:40:48;23.70;;;14.50;;
65189;SDS011;51777;53.570;9.984;2022-10-15T00:43:14;26.80;;;15.05;;
65189;SDS011;51777;53.570;9.984;2022-10-15T00:45:39;23.55;;;13.80;;
65189;SDS011;51777;53.570;9.984;2022-10-15T00:48:05;25.20;;;14.20;;
65189;SDS011;51777;53.570;9.984;2022-10-15T00:50:32;23.30;;;13.38;;
65189;SDS011;51777;53.570;9.984;2022-10-15T00:55:31;23.00;;;13.23;;
65189;SDS011;51777;53.570;9.984;2022-10-15T00:58:06;19.17;;;13.13;;
65189;SDS011;51777;53.570;9.984;2022-10-15T01:00:35;22.83;;;13.55;;
65189;SDS011;51777;53.570;9.984;2022-10-15T01:03:01;22.80;;;13.75;;
65189;SDS011;51777;53.570;9.984;2022-10-15T01:05:26;21.80;;;13.48;;
65189;SDS011;51777;53.570;9.984;2022-10-15T01:07:52;23.58;;;14.23;;
65189;SDS011;51777;53.570;9.984;2022-10-15T01:10:18;22.33;;;14.07;;
65189;SDS011;51777;53.570;9.984;2022-10-15T01:16:11;23.42;;;14.63;;
65189;SDS011;51777;53.570;9.984;2022-10-15T01:18:45;24.65;;;15.52;;
65189;SDS011;51777;53.570;9.984;2022-10-15T01:21:26;26.95;;;15.68;;
65189;SDS011;51777;53.570;9.984;2022-10-15T01:27:11;28.15;;;16.40;;
65189;SDS011;51777;53.570;9.984;2022-10-15T01:35:56;28.85;;;16.63;;
65189;SDS011;51777;53.570;9.984;2022-10-15T01:41:17;27.10;;;16.60;;
65189;SDS011;51777;53.570;9.984;2022-10-15T01:43:49;27.05;;;17.33;;
65189;SDS011;51777;53.570;9.984;2022-10-15T01:46:33;25.37;;;17.33;;
65189;SDS011;51777;53.570;9.984;2022-10-15T01:49:04;29.15;;;17.30;;
65189;SDS011;51777;53.570;9.984;2022-10-15T01:51:33;29.48;;;18.27;;
65189;SDS011;51777;53.570;9.984;2022-10-15T01:54:03;26.88;;;17.58;;
65189;SDS011;51777;53.570;9.984;2022-10-15T01:56:31;29.42;;;17.65;;
65189;SDS011;51777;53.570;9.984;2022-10-15T01:59:00;29.73;;;17.60;;
65189;SDS011;51777;53.570;9.984;2022-10-15T02:01:28;28.13;;;17.65;;
65189;SDS011;51777;53.570;9.984;2022-10-15T02:03:54;27.70;;;17.75;;
65189;SDS011;51777;53.570;9.984;2022-10-15T02:06:27;32.25;;;17.85;;
65189;SDS011;51777;53.570;9.984;2022-10-15T02:12:10;24.98;;;16.88;;
65189;SDS011;51777;53.570;9.984;2022-10-15T02:14:46;27.70;;;17.65;;
65189;SDS011;51777;53.570;9.984;2022-10-15T02:17:16;30.13;;;18.42;;
65189;SDS011;51777;53.570;9.984;2022-10-15T02:22:23;28.08;;;17.25;;
65189;SDS011;51777;53.570;9.984;2022-10-15T02:24:56;26.17;;;17.55;;
65189;SDS011;51777;53.570;9.984;2022-10-15T02:27:27;31.10;;;18.33;;
65189;SDS011;51777;53.570;9.984;2022-10-15T02:29:54;30.15;;;18.48;;
65189;SDS011;51777;53.570;9.984;2022-10-15T02:32:24;29.95;;;18.33;;
65189;SDS011;51777;53.570;9.984;2022-10-15T02:34:51;31.58;;;17.80;;
65189;SDS011;51777;53.570;9.984;2022-10-15T02:37:18;30.40;;;18.63;;
65189;SDS011;51777;53.570;9.984;2022-10-15T02:39:46;29.88;;;18.73;;
65189;SDS011;51777;53.570;9.984;2022-10-15T02:42:13;30.85;;;18.70;;
65189;SDS011;51777;53.570;9.984;2022-10-15T02:44:40;32.70;;;19.27;;
65189;SDS011;51777;53.570;9.984;2022-10-15T02:47:06;28.92;;;17.50;;
65189;SDS011;51777;53.570;9.984;2022-10-15T02:49:31;30.48;;;18.08;;
65189;SDS011;51777;53.570;9.984;2022-10-15T02:51:57;34.33;;;18.50;;
65189;SDS011;51777;53.570;9.984;2022-10-15T02:54:23;28.60;;;17.20;;
65189;SDS011;51777;53.570;9.984;2022-10-15T02:56:48;28.52;;;17.33;;
65189;SDS011;51777;53.570;9.984;2022-10-15T02:59:14;23.85;;;15.77;;
65189;SDS011;51777;53.570;9.984;2022-10-15T03:01:39;26.38;;;17.15;;
65189;SDS011;51777;53.570;9.984;2022-10-15T03:04:04;24.25;;;16.15;;
65189;SDS011;51777;53.570;9.984;2022-10-15T03:06:30;27.83;;;15.57;;
65189;SDS011;51777;53.570;9.984;2022-10-15T03:08:55;23.17;;;14.80;;
65189;SDS011;51777;53.570;9.984;2022-10-15T03:11:20;26.38;;;15.27;;
65189;SDS011;51777;53.570;9.984;2022-10-15T03:13:46;22.98;;;14.20;;
65189;SDS011;51777;53.570;9.984;2022-10-15T03:16:11;22.95;;;14.13;;
65189;SDS011;51777;53.570;9.984;2022-10-15T03:18:37;22.95;;;14.32;;
65189;SDS011;51777;53.570;9.984;2022-10-15T03:21:03;23.73;;;13.90;;
65189;SDS011;51777;53.570;9.984;2022-10-15T03:23:28;27.13;;;13.77;;
65189;SDS011;51777;53.570;9.984;2022-10-15T03:25:54;23.10;;;13.68;;
65189;SDS011;51777;53.570;9.984;2022-10-15T03:28:19;29.08;;;13.93;;
65189;SDS011;51777;53.570;9.984;2022-10-15T03:30:46;28.23;;;14.27;;
65189;SDS011;51777;53.570;9.984;2022-10-15T03:33:11;26.33;;;14.18;;
65189;SDS011;51777;53.570;9.984;2022-10-15T03:35:37;29.20;;;14.82;;
65189;SDS011;51777;53.570;9.984;2022-10-15T03:38:03;30.10;;;15.45;;
65189;SDS011;51777;53.570;9.984;2022-10-15T03:40:29;25.42;;;14.52;;
65189;SDS011;51777;53.570;9.984;2022-10-15T03:42:54;29.27;;;16.38;;
65189;SDS011;51777;53.570;9.984;2022-10-15T03:45:20;30.20;;;15.38;;
65189;SDS011;51777;53.570;9.984;2022-10-15T03:47:47;31.50;;;16.45;;
65189;SDS011;51777;53.570;9.984;2022-10-15T03:50:12;32.38;;;15.77;;
65189;SDS011;51777;53.570;9.984;2022-10-15T03:52:38;31.60;;;16.13;;
65189;SDS011;51777;53.570;9.984;2022-10-15T03:55:03;34.40;;;16.67;;
65189;SDS011;51777;53.570;9.984;2022-10-15T03:57:29;33.47;;;16.40;;
65189;SDS011;51777;53.570;9.984;2022-10-15T03:59:55;33.42;;;16.60;;
65189;SDS011;51777;53.570;9.984;2022-10-15T04:02:20;33.78;;;16.15;;
65189;SDS011;51777;53.570;9.984;2022-10-15T04:04:46;32.35;;;16.55;;
65189;SDS011;51777;53.570;9.984;2022-10-15T04:07:11;34.22;;;17.05;;
65189;SDS011;51777;53.570;9.984;2022-10-15T04:09:37;33.28;;;16.40;;
65189;SDS011;51777;53.570;9.984;2022-10-15T04:12:03;31.58;;;16.50;;
65189;SDS011;51777;53.570;9.984;2022-10-15T04:14:28;35.50;;;17.05;;
65189;SDS011;51777;53.570;9.984;2022-10-15T04:16:54;35.30;;;17.25;;
65189;SDS011;51777;53.570;9.984;2022-10-15T04:19:20;31.52;;;17.20;;
65189;SDS011;51777;53.570;9.984;2022-10-15T04:21:45;34.75;;;16.75;;
65189;SDS011;51777;53.570;9.984;2022-10-15T04:24:11;41.55;;;16.70;;
65189;SDS011;51777;53.570;9.984;2022-10-15T04:26:36;36.35;;;17.35;;
65189;SDS011;51777;53.570;9.984;2022-10-15T04:29:02;38.40;;;17.23;;
65189;SDS011;51777;53.570;9.984;2022-10-15T04:31:27;35.50;;;16.75;;
65189;SDS011;51777;53.570;9.984;2022-10-15T04:33:53;38.85;;;17.15;;
65189;SDS011;51777;53.570;9.984;2022-10-15T04:36:18;39.97;;;18.80;;
65189;SDS011;51777;53.570;9.984;2022-10-15T04:38:43;39.58;;;18.88;;
65189;SDS011;51777;53.570;9.984;2022-10-15T04:41:09;36.20;;;17.50;;
65189;SDS011;51777;53.570;9.984;2022-10-15T04:43:36;39.13;;;18.38;;
65189;SDS011;51777;53.570;9.984;2022-10-15T04:46:03;43.13;;;19.20;;
65189;SDS011;51777;53.570;9.984;2022-10-15T04:48:30;44.05;;;20.13;;
65189;SDS011;51777;53.570;9.984;2022-10-15T04:51:04;42.90;;;19.80;;
65189;SDS011;51777;53.570;9.984;2022-10-15T04:53:42;43.33;;;19.70;;
65189;SDS011;51777;53.570;9.984;2022-10-15T04:56:14;46.95;;;19.83;;
65189;SDS011;51777;53.570;9.984;2022-10-15T04:58:42;43.92;;;20.23;;
65189;SDS011;51777;53.570;9.984;2022-10-15T05:01:10;43.83;;;19.98;;
65189;SDS011;51777;53.570;9.984;2022-10-15T05:03:37;42.67;;;19.85;;
65189;SDS011;51777;53.570;9.984;2022-10-15T05:06:05;48.70;;;20.42;;
65189;SDS011;51777;53.570;9.984;2022-10-15T05:08:34;42.20;;;19.83;;
65189;SDS011;51777;53.570;9.984;2022-10-15T05:11:01;46.67;;;20.95;;
65189;SDS011;51777;53.570;9.984;2022-10-15T05:13:28;42.78;;;20.35;;
65189;SDS011;51777;53.570;9.984;2022-10-15T05:15:53;45.25;;;21.05;;
65189;SDS011;51777;53.570;9.984;2022-10-15T05:18:19;47.20;;;20.98;;
65189;SDS011;51777;53.570;9.984;2022-10-15T05:20:44;43.70;;;20.35;;
65189;SDS011;51777;53.570;9.984;2022-10-15T05:23:10;44.25;;;20.77;;
65189;SDS011;51777;53.570;9.984;2022-10-15T05:25:35;52.55;;;21.60;;
65189;SDS011;51777;53.570;9.984;2022-10-15T05:28:00;47.40;;;20.58;;
65189;SDS011;51777;53.570;9.984;2022-10-15T05:30:26;47.85;;;20.73;;
65189;SDS011;51777;53.570;9.984;2022-10-15T05:32:51;46.55;;;21.10;;
65189;SDS011;51777;53.570;9.984;2022-10-15T05:35:17;47.35;;;21.40;;
65189;SDS011;51777;53.570;9.984;2022-10-15T05:37:43;50.28;;;21.52;;
65189;SDS011;51777;53.570;9.984;2022-10-15T05:40:08;50.47;;;21.85;;
65189;SDS011;51777;53.570;9.984;2022-10-15T05:42:34;47.05;;;21.73;;
65189;SDS011;51777;53.570;9.984;2022-10-15T05:44:59;48.25;;;22.00;;
65189;SDS011;51777;53.570;9.984;2022-10-15T05:47:25;49.20;;;21.60;;
65189;SDS011;51777;53.570;9.984;2022-10-15T05:49:50;46.72;;;21.63;;
65189;SDS011;51777;53.570;9.984;2022-10-15T05:52:16;52.35;;;22.83;;
65189;SDS011;51777;53.570;9.984;2022-10-15T05:54:41;48.13;;;21.45;;
65189;SDS011;51777;53.570;9.984;2022-10-15T05:57:06;45.30;;;21.08;;
65189;SDS011;51777;53.570;9.984;2022-10-15T05:59:32;49.55;;;21.85;;
65189;SDS011;51777;53.570;9.984;2022-10-15T06:01:57;49.85;;;20.98;;
65189;SDS011;51777;53.570;9.984;2022-10-15T06:04:23;45.70;;;22.25;;
65189;SDS011;51777;53.570;9.984;2022-10-15T06:06:48;47.33;;;21.85;;
65189;SDS011;51777;53.570;9.984;2022-10-15T06:09:14;48.92;;;22.92;;
65189;SDS011;51777;53.570;9.984;2022-10-15T06:11:39;49.00;;;22.88;;
65189;SDS011;51777;53.570;9.984;2022-10-15T06:14:04;50.00;;;22.40;;
65189;SDS011;51777;53.570;9.984;2022-10-15T06:16:30;45.40;;;21.30;;
65189;SDS011;51777;53.570;9.984;2022-10-15T06:18:57;49.65;;;21.73;;
65189;SDS011;51777;53.570;9.984;2022-10-15T06:21:22;53.13;;;23.13;;
65189;SDS011;51777;53.570;9.984;2022-10-15T06:23:48;46.78;;;21.77;;
65189;SDS011;51777;53.570;9.984;2022-10-15T06:26:14;47.92;;;21.95;;
65189;SDS011;51777;53.570;9.984;2022-10-15T06:28:39;46.90;;;22.52;;
65189;SDS011;51777;53.570;9.984;2022-10-15T06:31:05;46.67;;;22.73;;
65189;SDS011;51777;53.570;9.984;2022-10-15T06:33:31;51.70;;;23.35;;
65189;SDS011;51777;53.570;9.984;2022-10-15T06:36:00;50.65;;;22.02;;
65189;SDS011;51777;53.570;9.984;2022-10-15T06:38:27;49.38;;;21.98;;
65189;SDS011;51777;53.570;9.984;2022-10-15T06:40:52;45.45;;;22.33;;
65189;SDS011;51777;53.570;9.984;2022-10-15T06:43:17;50.58;;;22.40;;
65189;SDS011;51777;53.570;9.984;2022-10-15T06:45:43;49.88;;;22.45;;
65189;SDS011;51777;53.570;9.984;2022-10-15T06:48:09;47.85;;;22.83;;
65189;SDS011;51777;53.570;9.984;2022-10-15T06:50:36;46.78;;;22.30;;
65189;SDS011;51777;53.570;9.984;2022-10-15T06:53:03;54.22;;;23.33;;
65189;SDS011;51777;53.570;9.984;2022-10-15T06:55:28;48.95;;;23.30;;
65189;SDS011;51777;53.570;9.984;2022-10-15T06:57:54;47.63;;;22.08;;
65189;SDS011;51777;53.570;9.984;2022-10-15T07:00:21;45.22;;;23.05;;
65189;SDS011;51777;53.570;9.984;2022-10-15T07:02:47;48.45;;;22.98;;
65189;SDS011;51777;53.570;9.984;2022-10-15T07:05:12;47.35;;;22.55;;
65189;SDS011;51777;53.570;9.984;2022-10-15T07:07:38;48.33;;;22.77;;
65189;SDS011;51777;53.570;9.984;2022-10-15T07:10:03;50.90;;;23.30;;
65189;SDS011;51777;53.570;9.984;2022-10-15T07:12:29;52.67;;;22.98;;
65189;SDS011;51777;53.570;9.984;2022-10-15T07:14:54;47.85;;;22.17;;
65189;SDS011;51777;53.570;9.984;2022-10-15T07:17:20;50.72;;;22.42;;
65189;SDS011;51777;53.570;9.984;2022-10-15T07:19:45;51.38;;;23.40;;
65189;SDS011;51777;53.570;9.984;2022-10-15T07:22:10;40.65;;;21.83;;
65189;SDS011;51777;53.570;9.984;2022-10-15T07:24:36;46.58;;;22.02;;
65189;SDS011;51777;53.570;9.984;2022-10-15T07:27:01;45.65;;;22.10;;
65189;SDS011;51777;53.570;9.984;2022-10-15T07:29:28;47.83;;;22.13;;
65189;SDS011;51777;53.570;9.984;2022-10-15T07:31:55;44.38;;;21.48;;
65189;SDS011;51777;53.570;9.984;2022-10-15T07:34:21;42.88;;;22.08;;
65189;SDS011;51777;53.570;9.984;2022-10-15T07:36:46;42.10;;;20.58;;
65189;SDS011;51777;53.570;9.984;2022-10-15T07:39:12;53.38;;;20.73;;
65189;SDS011;51777;53.570;9.984;2022-10-15T07:41:37;43.53;;;21.75;;
65189;SDS011;51777;53.570;9.984;2022-10-15T07:44:03;46.83;;;21.10;;
65189;SDS011;51777;53.570;9.984;2022-10-15T07:46:28;40.08;;;19.50;;
65189;SDS011;51777;53.570;9.984;2022-10-15T07:48:54;41.10;;;20.17;;
65189;SDS011;51777;53.570;9.984;2022-10-15T07:51:19;45.65;;;20.63;;
65189;SDS011;51777;53.570;9.984;2022-10-15T07:53:45;41.38;;;20.00;;
65189;SDS011;51777;53.570;9.984;2022-10-15T07:56:11;39.88;;;19.85;;
65189;SDS011;51777;53.570;9.984;2022-10-15T07:58:38;40.50;;;20.05;;
65189;SDS011;51777;53.570;9.984;2022-10-15T08:01:05;41.83;;;19.77;;
65189;SDS011;51777;53.570;9.984;2022-10-15T08:03:32;43.88;;;19.38;;
65189;SDS011;51777;53.570;9.984;2022-10-15T08:05:58;37.63;;;19.05;;
65189;SDS011;51777;53.570;9.984;2022-10-15T08:08:24;37.40;;;19.10;;
65189;SDS011;51777;53.570;9.984;2022-10-15T08:10:50;32.50;;;16.92;;
65189;SDS011;51777;53.570;9.984;2022-10-15T08:13:15;33.50;;;16.75;;
65189;SDS011;51777;53.570;9.984;2022-10-15T08:15:41;31.23;;;15.90;;
65189;SDS011;51777;53.570;9.984;2022-10-15T08:18:07;35.25;;;16.67;;
65189;SDS011;51777;53.570;9.984;2022-10-15T08:20:35;32.17;;;15.32;;
65189;SDS011;51777;53.570;9.984;2022-10-15T08:23:02;26.33;;;14.57;;
65189;SDS011;51777;53.570;9.984;2022-10-15T08:25:28;21.83;;;13.27;;
65189;SDS011;51777;53.570;9.984;2022-10-15T08:27:53;22.25;;;13.15;;
65189;SDS011;51777;53.570;9.984;2022-10-15T08:30:18;24.67;;;13.98;;
65189;SDS011;51777;53.570;9.984;2022-10-15T08:32:44;20.08;;;13.10;;
65189;SDS011;51777;53.570;9.984;2022-10-15T08:35:10;27.00;;;14.63;;
65189;SDS011;51777;53.570;9.984;2022-10-15T08:37:35;23.17;;;13.77;;
65189;SDS011;51777;53.570;9.984;2022-10-15T08:40:01;23.25;;;13.00;;
65189;SDS011;51777;53.570;9.984;2022-10-15T08:42:31;25.52;;;13.45;;
65189;SDS011;51777;53.570;9.984;2022-10-15T08:45:02;23.13;;;13.77;;
65189;SDS011;51777;53.570;9.984;2022-10-15T08:47:35;25.15;;;12.73;;
65189;SDS011;51777;53.570;9.984;2022-10-15T08:53:11;21.90;;;13.80;;
65189;SDS011;51777;53.570;9.984;2022-10-15T08:55:41;25.02;;;14.82;;
65189;SDS011;51777;53.570;9.984;2022-10-15T08:58:16;24.23;;;14.13;;
65189;SDS011;51777;53.570;9.984;2022-10-15T09:00:54;23.88;;;13.73;;
65189;SDS011;51777;53.570;9.984;2022-10-15T09:06:19;27.73;;;14.63;;
65189;SDS011;51777;53.570;9.984;2022-10-15T09:11:17;27.48;;;13.95;;
65189;SDS011;51777;53.570;9.984;2022-10-15T09:14:03;25.42;;;14.45;;
65189;SDS011;51777;53.570;9.984;2022-10-15T09:16:37;27.38;;;14.60;;
65189;SDS011;51777;53.570;9.984;2022-10-15T09:19:05;24.75;;;13.90;;
65189;SDS011;51777;53.570;9.984;2022-10-15T09:21:38;26.17;;;13.90;;
65189;SDS011;51777;53.570;9.984;2022-10-15T09:24:05;24.30;;;13.38;;
65189;SDS011;51777;53.570;9.984;2022-10-15T09:29:22;24.08;;;12.30;;
65189;SDS011;51777;53.570;9.984;2022-10-15T09:32:20;23.40;;;12.43;;
65189;SDS011;51777;53.570;9.984;2022-10-15T09:34:58;26.20;;;12.50;;
65189;SDS011;51777;53.570;9.984;2022-10-15T09:43:03;23.38;;;11.32;;
65189;SDS011;51777;53.570;9.984;2022-10-15T09:45:29;17.88;;;11.02;;
65189;SDS011;51777;53.570;9.984;2022-10-15T09:47:56;21.67;;;12.20;;
65189;SDS011;51777;53.570;9.984;2022-10-15T09:50:26;16.42;;;9.95;;
65189;SDS011;51777;53.570;9.984;2022-10-15T09:53:04;19.45;;;10.52;;
65189;SDS011;51777;53.570;9.984;2022-10-15T09:58:49;17.17;;;10.60;;
65189;SDS011;51777;53.570;9.984;2022-10-15T10:01:18;17.50;;;10.50;;
65189;SDS011;51777;53.570;9.984;2022-10-15T10:03:52;17.25;;;9.38;;
65189;SDS011;51777;53.570;9.984;2022-10-15T10:06:19;20.42;;;9.38;;
65189;SDS011;51777;53.570;9.984;2022-10-15T10:08:49;17.42;;;10.00;;
65189;SDS011;51777;53.570;9.984;2022-10-15T10:11:23;17.75;;;10.02;;
65189;SDS011;51777;53.570;9.984;2022-10-15T10:13:53;17.25;;;10.55;;
65189;SDS011;51777;53.570;9.984;2022-10-15T10:16:21;12.60;;;8.65;;
65189;SDS011;51777;53.570;9.984;2022-10-15T10:21:41;18.02;;;8.85;;
65189;SDS011;51777;53.570;9.984;2022-10-15T10:26:46;14.15;;;7.93;;
65189;SDS011;51777;53.570;9.984;2022-10-15T10:29:19;15.23;;;8.48;;
65189;SDS011;51777;53.570;9.984;2022-10-15T10:31:46;15.20;;;7.55;;
65189;SDS011;51777;53.570;9.984;2022-10-15T10:34:16;11.10;;;6.88;;
65189;SDS011;51777;53.570;9.984;2022-10-15T10:36:49;12.80;;;7.68;;
65189;SDS011;51777;53.570;9.984;2022-10-15T10:41:53;12.90;;;7.32;;
65189;SDS011;51777;53.570;9.984;2022-10-15T10:44:24;15.80;;;6.93;;
65189;SDS011;51777;53.570;9.984;2022-10-15T10:47:00;14.75;;;6.00;;
65189;SDS011;51777;53.570;9.984;2022-10-15T10:49:43;12.30;;;6.35;;
65189;SDS011;51777;53.570;9.984;2022-10-15T10:52:21;10.57;;;5.90;;
65189;SDS011;51777;53.570;9.984;2022-10-15T10:55:37;14.18;;;5.78;;
65189;SDS011;51777;53.570;9.984;2022-10-15T10:57:43;10.35;;;6.03;;
65189;SDS011;51777;53.570;9.984;2022-10-15T11:00:21;12.65;;;6.07;;
65189;SDS011;51777;53.570;9.984;2022-10-15T11:02:53;10.80;;;6.60;;
65189;SDS011;51777;53.570;9.984;2022-10-15T11:05:21;20.02;;;6.40;;
65189;SDS011;51777;53.570;9.984;2022-10-15T11:13:18;12.07;;;6.20;;
65189;SDS011;51777;53.570;9.984;2022-10-15T11:15:59;11.85;;;6.55;;
65189;SDS011;51777;53.570;9.984;2022-10-15T11:21:24;10.98;;;5.25;;
65189;SDS011;51777;53.570;9.984;2022-10-15T11:24:14;9.60;;;5.10;;
65189;SDS011;51777;53.570;9.984;2022-10-15T11:29:49;10.18;;;4.80;;
65189;SDS011;51777;53.570;9.984;2022-10-15T11:32:32;11.30;;;4.60;;
65189;SDS011;51777;53.570;9.984;2022-10-15T11:35:10;6.53;;;3.72;;
65189;SDS011;51777;53.570;9.984;2022-10-15T11:38:22;10.82;;;4.30;;
65189;SDS011;51777;53.570;9.984;2022-10-15T11:57:32;8.43;;;3.78;;
65189;SDS011;51777;53.570;9.984;2022-10-15T12:02:49;6.28;;;2.47;;
65189;SDS011;51777;53.570;9.984;2022-10-15T12:05:17;4.70;;;2.50;;
65189;SDS011;51777;53.570;9.984;2022-10-15T12:07:46;3.65;;;2.10;;
65189;SDS011;51777;53.570;9.984;2022-10-15T12:12:57;9.02;;;2.67;;
65189;SDS011;51777;53.570;9.984;2022-10-15T12:21:29;6.28;;;2.75;;
65189;SDS011;51777;53.570;9.984;2022-10-15T12:24:01;6.90;;;3.10;;
65189;SDS011;51777;53.570;9.984;2022-10-15T12:26:31;6.47;;;2.55;;
65189;SDS011;51777;53.570;9.984;2022-10-15T12:29:03;7.53;;;3.28;;
65189;SDS011;51777;53.570;9.984;2022-10-15T12:31:50;5.75;;;3.13;;
65189;SDS011;51777;53.570;9.984;2022-10-15T12:34:28;6.10;;;3.40;;
65189;SDS011;51777;53.570;9.984;2022-10-15T12:37:04;12.18;;;3.08;;
65189;SDS011;51777;53.570;9.984;2022-10-15T12:39:38;8.90;;;2.83;;
65189;SDS011;51777;53.570;9.984;2022-10-15T12:42:19;10.60;;;3.25;;
65189;SDS011;51777;53.570;9.984;2022-10-15T12:45:07;10.00;;;3.13;;
65189;SDS011;51777;53.570;9.984;2022-10-15T12:50:28;7.78;;;3.20;;
65189;SDS011;51777;53.570;9.984;2022-10-15T12:55:42;5.60;;;2.85;;
65189;SDS011;51777;53.570;9.984;2022-10-15T13:00:56;6.03;;;2.80;;
65189;SDS011;51777;53.570;9.984;2022-10-15T13:03:22;4.72;;;2.90;;
65189;SDS011;51777;53.570;9.984;2022-10-15T13:06:01;8.95;;;2.83;;
65189;SDS011;51777;53.570;9.984;2022-10-15T13:08:47;4.97;;;2.97;;
65189;SDS011;51777;53.570;9.984;2022-10-15T13:11:39;6.72;;;3.20;;
65189;SDS011;51777;53.570;9.984;2022-10-15T13:14:29;7.78;;;3.30;;
65189;SDS011;51777;53.570;9.984;2022-10-15T13:16:55;10.20;;;4.82;;
65189;SDS011;51777;53.570;9.984;2022-10-15T13:19:26;7.60;;;3.88;;
65189;SDS011;51777;53.570;9.984;2022-10-15T13:21:55;5.55;;;3.83;;
65189;SDS011;51777;53.570;9.984;2022-10-15T13:24:24;10.90;;;3.28;;
65189;SDS011;51777;53.570;9.984;2022-10-15T13:26:51;14.38;;;5.45;;
65189;SDS011;51777;53.570;9.984;2022-10-15T13:29:19;7.10;;;3.42;;
65189;SDS011;51777;53.570;9.984;2022-10-15T13:31:46;7.85;;;3.40;;
65189;SDS011;51777;53.570;9.984;2022-10-15T13:34:20;7.55;;;3.83;;
65189;SDS011;51777;53.570;9.984;2022-10-15T13:36:51;10.25;;;4.10;;
65189;SDS011;51777;53.570;9.984;2022-10-15T13:42:08;8.60;;;3.85;;
65189;SDS011;51777;53.570;9.984;2022-10-15T13:44:38;7.85;;;3.63;;
65189;SDS011;51777;53.570;9.984;2022-10-15T13:47:24;8.30;;;4.47;;
65189;SDS011;51777;53.570;9.984;2022-10-15T13:52:59;7.78;;;5.07;;
65189;SDS011;51777;53.570;9.984;2022-10-15T13:55:49;6.65;;;4.50;;
65189;SDS011;51777;53.570;9.984;2022-10-15T13:58:17;13.93;;;5.00;;
65189;SDS011;51777;53.570;9.984;2022-10-15T14:00:50;9.43;;;5.18;;
65189;SDS011;51777;53.570;9.984;2022-10-15T14:03:19;8.90;;;5.15;;
65189;SDS011;51777;53.570;9.984;2022-10-15T14:05:47;9.88;;;5.20;;
65189;SDS011;51777;53.570;9.984;2022-10-15T14:08:19;8.85;;;4.80;;
65189;SDS011;51777;53.570;9.984;2022-10-15T14:10:58;9.45;;;5.40;;
65189;SDS011;51777;53.570;9.984;2022-10-15T14:13:24;11.57;;;5.45;;
65189;SDS011;51777;53.570;9.984;2022-10-15T14:18:17;10.50;;;6.10;;
65189;SDS011;51777;53.570;9.984;2022-10-15T14:20:52;11.10;;;6.72;;
65189;SDS011;51777;53.570;9.984;2022-10-15T14:23:19;12.18;;;6.20;;
65189;SDS011;51777;53.570;9.984;2022-10-15T14:25:55;9.38;;;6.50;;
65189;SDS011;51777;53.570;9.984;2022-10-15T14:28:22;9.35;;;6.53;;
65189;SDS011;51777;53.570;9.984;2022-10-15T14:30:49;12.93;;;7.20;;
65189;SDS011;51777;53.570;9.984;2022-10-15T14:33:28;13.80;;;7.30;;
65189;SDS011;51777;53.570;9.984;2022-10-15T14:38:54;9.05;;;7.20;;
65189;SDS011;51777;53.570;9.984;2022-10-15T14:41:40;12.00;;;8.10;;
65189;SDS011;51777;53.570;9.984;2022-10-15T14:44:19;17.02;;;8.43;;
65189;SDS011;51777;53.570;9.984;2022-10-15T14:46:46;12.43;;;8.05;;
65189;SDS011;51777;53.570;9.984;2022-10-15T14:49:24;12.68;;;8.15;;
65189;SDS011;51777;53.570;9.984;2022-10-15T14:51:53;16.85;;;8.52;;
65189;SDS011;51777;53.570;9.984;2022-10-15T14:54:30;13.20;;;9.50;;
65189;SDS011;51777;53.570;9.984;2022-10-15T14:57:00;12.50;;;8.63;;
65189;SDS011;51777;53.570;9.984;2022-10-15T14:59:31;13.93;;;8.80;;
65189;SDS011;51777;53.570;9.984;2022-10-15T15:02:00;17.17;;;10.48;;
65189;SDS011;51777;53.570;9.984;2022-10-15T15:04:34;14.50;;;9.65;;
65189;SDS011;51777;53.570;9.984;2022-10-15T15:07:14;13.07;;;8.95;;
65189;SDS011;51777;53.570;9.984;2022-10-15T15:09:48;12.02;;;8.80;;
65189;SDS011;51777;53.570;9.984;2022-10-15T15:12:18;15.20;;;9.55;;
65189;SDS011;51777;53.570;9.984;2022-10-15T15:14:46;14.63;;;8.93;;
65189;SDS011;51777;53.570;9.984;2022-10-15T15:17:13;12.63;;;9.57;;
65189;SDS011;51777;53.570;9.984;2022-10-15T15:19:40;17.67;;;9.35;;
65189;SDS011;51777;53.570;9.984;2022-10-15T15:22:07;13.82;;;9.20;;
65189;SDS011;51777;53.570;9.984;2022-10-15T15:24:35;12.18;;;9.00;;
65189;SDS011;51777;53.570;9.984;2022-10-15T15:27:01;12.05;;;8.90;;
65189;SDS011;51777;53.570;9.984;2022-10-15T15:29:27;11.05;;;8.85;;
65189;SDS011;51777;53.570;9.984;2022-10-15T15:31:53;13.23;;;8.73;;
65189;SDS011;51777;53.570;9.984;2022-10-15T15:34:18;12.82;;;8.88;;
65189;SDS011;51777;53.570;9.984;2022-10-15T15:36:43;12.15;;;8.68;;
65189;SDS011;51777;53.570;9.984;2022-10-15T15:39:09;13.95;;;9.52;;
65189;SDS011;51777;53.570;9.984;2022-10-15T15:41:34;15.70;;;9.70;;
65189;SDS011;51777;53.570;9.984;2022-10-15T15:44:00;12.90;;;9.77;;
65189;SDS011;51777;53.570;9.984;2022-10-15T15:46:28;11.65;;;9.05;;
65189;SDS011;51777;53.570;9.984;2022-10-15T15:48:54;12.23;;;9.15;;
65189;SDS011;51777;53.570;9.984;2022-10-15T15:51:26;16.30;;;9.57;;
65189;SDS011;51777;53.570;9.984;2022-10-15T15:53:56;11.60;;;9.30;;
65189;SDS011;51777;53.570;9.984;2022-10-15T15:56:22;12.43;;;8.82;;
65189;SDS011;51777;53.570;9.984;2022-10-15T15:58:48;11.95;;;9.15;;
65189;SDS011;51777;53.570;9.984;2022-10-15T16:01:15;17.52;;;10.57;;
65189;SDS011;51777;53.570;9.984;2022-10-15T16:03:41;13.15;;;8.70;;
65189;SDS011;51777;53.570;9.984;2022-10-15T16:06:06;13.10;;;9.27;;
65189;SDS011;51777;53.570;9.984;2022-10-15T16:08:32;12.07;;;8.45;;
65189;SDS011;51777;53.570;9.984;2022-10-15T16:11:00;11.27;;;8.30;;
65189;SDS011;51777;53.570;9.984;2022-10-15T16:13:26;13.50;;;9.20;;
65189;SDS011;51777;53.570;9.984;2022-10-15T16:15:53;12.48;;;9.45;;
65189;SDS011;51777;53.570;9.984;2022-10-15T16:18:18;11.00;;;9.15;;
65189;SDS011;51777;53.570;9.984;2022-10-15T16:20:44;14.77;;;9.15;;
65189;SDS011;51777;53.570;9.984;2022-10-15T16:23:10;12.05;;;8.65;;
65189;SDS011;51777;53.570;9.984;2022-10-15T16:25:35;11.88;;;9.07;;
65189;SDS011;51777;53.570;9.984;2022-10-15T16:28:00;11.45;;;8.48;;
65189;SDS011;51777;53.570;9.984;2022-10-15T16:30:26;14.68;;;9.30;;